createdAt,value
2023-04-04T00:00:22.867Z,2.60
2023-04-04T00:02:49.875Z,2.50
2023-04-04T00:05:16.644Z,2.50
2023-04-04T00:07:47.171Z,2.50
2023-04-04T00:10:14.203Z,2.50
2023-04-04T00:12:41.315Z,2.50
2023-04-04T00:15:08.363Z,2.50
2023-04-04T00:17:34.996Z,2.40
2023-04-04T00:20:01.796Z,2.50
2023-04-04T00:22:28.438Z,2.50
2023-04-04T00:24:55.041Z,2.50
2023-04-04T00:27:21.692Z,2.40
2023-04-04T00:29:48.346Z,2.40
2023-04-04T00:32:15.050Z,2.40
2023-04-04T00:34:41.818Z,2.40
2023-04-04T00:37:12.022Z,2.40
2023-04-04T00:39:38.663Z,2.30
2023-04-04T00:42:06.221Z,2.30
2023-04-04T00:44:33.130Z,2.30
2023-04-04T00:46:59.757Z,2.30
2023-04-04T00:49:26.356Z,2.30
2023-04-04T00:51:52.960Z,2.30
2023-04-04T00:54:19.810Z,2.20
2023-04-04T00:56:47.156Z,2.20
2023-04-04T00:59:14.450Z,2.20
2023-04-04T01:01:41.625Z,2.20
2023-04-04T01:04:08.656Z,2.20
2023-04-04T01:06:35.513Z,2.20
2023-04-04T01:09:02.832Z,2.10
2023-04-04T01:11:29.463Z,2.10
2023-04-04T01:13:56.265Z,2.10
2023-04-04T01:16:24.173Z,2.10
2023-04-04T01:18:52.097Z,2.10
2023-04-04T01:21:21.828Z,2.10
2023-04-04T01:24:01.788Z,2.00
2023-04-04T01:26:29.096Z,2.00
2023-04-04T01:28:57.139Z,2.00
2023-04-04T01:31:40.023Z,1.90
2023-04-04T01:34:23.192Z,2.00
2023-04-04T01:36:57.984Z,1.90
2023-04-04T01:39:32.575Z,1.90
2023-04-04T01:42:01.493Z,1.90
2023-04-04T01:44:28.999Z,1.90
2023-04-04T01:46:56.431Z,2.20
2023-04-04T01:49:23.877Z,1.80
2023-04-04T01:51:52.297Z,1.80
2023-04-04T01:54:22.450Z,1.80
2023-04-04T01:56:49.194Z,1.80
2023-04-04T01:59:16.160Z,1.80
2023-04-04T02:01:43.666Z,1.80
2023-04-04T02:04:12.587Z,1.80
2023-04-04T02:06:40.407Z,1.80
2023-04-04T02:09:07.229Z,1.80
2023-04-04T02:11:33.823Z,1.70
2023-04-04T02:14:00.603Z,1.70
2023-04-04T02:16:27.407Z,1.70
2023-04-04T02:18:54.053Z,1.70
2023-04-04T02:21:20.754Z,1.70
2023-04-04T02:23:47.355Z,1.60
2023-04-04T02:26:13.999Z,1.60
2023-04-04T02:28:40.628Z,1.70
2023-04-04T02:31:07.263Z,1.60
2023-04-04T02:33:33.983Z,1.70
2023-04-04T02:36:01.501Z,1.60
2023-04-04T02:38:28.673Z,1.60
2023-04-04T02:40:55.345Z,1.60
2023-04-04T02:43:21.948Z,1.70
2023-04-04T02:45:49.278Z,1.70
2023-04-04T02:48:16.300Z,1.60
2023-04-04T02:50:43.182Z,1.60
2023-04-04T02:53:10.235Z,1.60
2023-04-04T02:55:36.819Z,1.60
2023-04-04T02:58:03.491Z,1.60
2023-04-04T03:00:30.284Z,1.60
2023-04-04T03:02:57.811Z,1.60
2023-04-04T03:05:25.509Z,1.60
2023-04-04T03:07:56.306Z,1.60
2023-04-04T03:10:24.190Z,1.60
2023-04-04T03:12:51.428Z,1.60
2023-04-04T03:15:18.081Z,1.60
2023-04-04T03:17:45.260Z,1.60
2023-04-04T03:20:13.468Z,1.60
2023-04-04T03:22:40.126Z,1.60
2023-04-04T03:25:07.213Z,1.60
2023-04-04T03:27:34.678Z,1.50
2023-04-04T03:30:02.257Z,1.60
2023-04-04T03:32:29.051Z,1.60
2023-04-04T03:34:55.742Z,1.50
2023-04-04T03:37:22.957Z,1.50
2023-04-04T03:39:49.624Z,1.50
2023-04-04T03:42:16.754Z,1.50
2023-04-04T03:44:43.361Z,1.50
2023-04-04T03:47:10.099Z,1.50
2023-04-04T03:49:36.740Z,1.50
2023-04-04T03:52:03.506Z,1.50
2023-04-04T03:54:30.131Z,1.40
2023-04-04T03:56:57.564Z,1.40
2023-04-04T03:59:24.825Z,1.40
2023-04-04T04:01:52.171Z,1.40
2023-04-04T04:04:18.831Z,1.40
2023-04-04T04:06:45.497Z,1.40
2023-04-04T04:09:14.901Z,1.40
2023-04-04T04:11:41.704Z,1.30
2023-04-04T04:14:08.484Z,1.30
2023-04-04T04:16:35.157Z,1.30
2023-04-04T04:19:02.356Z,1.30
2023-04-04T04:21:28.996Z,1.30
2023-04-04T04:23:55.605Z,1.30
2023-04-04T04:26:22.329Z,1.30
2023-04-04T04:28:48.978Z,1.20
2023-04-04T04:31:15.627Z,1.20
2023-04-04T04:33:42.364Z,1.20
2023-04-04T04:36:09.182Z,1.20
2023-04-04T04:38:35.817Z,1.20
2023-04-04T04:41:02.463Z,1.10
2023-04-04T04:43:29.157Z,1.10
2023-04-04T04:45:55.827Z,1.20
2023-04-04T04:48:22.602Z,1.20
2023-04-04T04:50:49.232Z,1.20
2023-04-04T04:53:16.084Z,1.10
2023-04-04T04:55:46.579Z,1.10
2023-04-04T04:58:13.315Z,1.10
2023-04-04T05:00:40.532Z,1.00
2023-04-04T05:03:07.364Z,1.10
2023-04-04T05:05:34.727Z,1.10
2023-04-04T05:08:02.590Z,1.10
2023-04-04T05:10:30.566Z,1.10
2023-04-04T05:12:57.713Z,1.10
2023-04-04T05:15:25.945Z,1.10
2023-04-04T05:17:52.760Z,1.20
2023-04-04T05:20:19.478Z,1.20
2023-04-04T05:22:46.558Z,1.20
2023-04-04T05:25:13.805Z,1.20
2023-04-04T05:27:41.104Z,1.30
2023-04-04T05:30:08.332Z,1.30
2023-04-04T05:32:35.476Z,1.40
2023-04-04T05:35:02.157Z,1.50
2023-04-04T05:37:28.821Z,1.60
2023-04-04T05:39:55.510Z,1.70
2023-04-04T05:42:22.595Z,1.70
2023-04-04T05:44:49.286Z,1.90
2023-04-04T05:47:15.992Z,2.10
2023-04-04T05:49:42.633Z,2.40
2023-04-04T05:52:10.671Z,2.70
2023-04-04T05:54:37.269Z,3.10
2023-04-04T05:57:03.883Z,3.40
2023-04-04T05:59:30.682Z,3.90
2023-04-04T06:01:57.588Z,4.30
2023-04-04T06:04:24.252Z,4.70
2023-04-04T06:06:51.942Z,5.10
2023-04-04T06:09:18.567Z,5.40
2023-04-04T06:11:45.269Z,5.60
2023-04-04T06:14:13.921Z,5.90
2023-04-04T06:16:41.753Z,6.40
2023-04-04T06:19:08.466Z,7.00
2023-04-04T06:21:35.317Z,7.40
2023-04-04T06:24:01.992Z,7.40
2023-04-04T06:26:28.567Z,7.60
2023-04-04T06:28:55.860Z,7.60
2023-04-04T06:31:22.559Z,7.90
2023-04-04T06:33:49.247Z,8.30
2023-04-04T06:36:16.026Z,8.40
2023-04-04T06:38:42.694Z,8.60
2023-04-04T06:41:09.402Z,8.80
2023-04-04T06:43:36.050Z,9.00
2023-04-04T06:46:02.937Z,9.20
2023-04-04T06:48:29.632Z,9.50
2023-04-04T06:50:56.444Z,9.70
2023-04-04T06:53:23.745Z,10.00
2023-04-04T06:55:51.661Z,10.20
2023-04-04T06:58:18.246Z,10.40
2023-04-04T07:00:44.893Z,10.40
2023-04-04T07:03:11.645Z,10.20
2023-04-04T07:05:41.596Z,9.70
2023-04-04T07:08:08.693Z,10.00
2023-04-04T07:10:35.845Z,10.60
2023-04-04T07:13:02.511Z,11.10
2023-04-04T07:15:29.170Z,11.70
2023-04-04T07:17:55.874Z,12.80
2023-04-04T07:20:22.532Z,14.00
2023-04-04T07:22:49.491Z,14.90
2023-04-04T07:25:16.181Z,15.90
2023-04-04T07:27:42.815Z,16.60
2023-04-04T07:30:10.032Z,17.30
2023-04-04T07:32:38.252Z,16.20
2023-04-04T07:35:08.345Z,15.90
2023-04-04T07:37:37.730Z,16.90
2023-04-04T07:40:07.891Z,17.20
2023-04-04T07:42:34.488Z,18.50
2023-04-04T07:45:01.137Z,18.40
2023-04-04T07:47:28.136Z,17.60
2023-04-04T07:49:54.760Z,17.50
2023-04-04T07:52:21.442Z,17.70
2023-04-04T07:54:48.778Z,17.50
2023-04-04T07:57:15.438Z,18.60
2023-04-04T07:59:42.099Z,19.70
2023-04-04T08:02:08.685Z,20.70
2023-04-04T08:04:35.367Z,21.70
2023-04-04T08:07:02.004Z,22.50
2023-04-04T08:09:34.139Z,22.70
2023-04-04T08:12:02.117Z,23.30
2023-04-04T08:14:29.079Z,24.20
2023-04-04T08:16:55.777Z,25.40
2023-04-04T08:19:22.833Z,26.10
2023-04-04T08:21:50.013Z,26.70
2023-04-04T08:24:16.738Z,27.20
2023-04-04T08:26:45.290Z,24.60
2023-04-04T08:29:15.908Z,22.90
2023-04-04T08:31:43.189Z,22.20
2023-04-04T08:34:09.857Z,21.30
2023-04-04T08:36:36.508Z,21.40
2023-04-04T08:39:03.731Z,22.90
2023-04-04T08:41:34.824Z,23.60
2023-04-04T08:44:04.243Z,23.20
2023-04-04T08:46:31.819Z,22.40
2023-04-04T08:49:00.354Z,22.70
2023-04-04T08:51:31.689Z,22.90
2023-04-04T08:53:59.092Z,23.10
2023-04-04T08:56:26.165Z,23.80
2023-04-04T08:58:52.893Z,24.80
2023-04-04T09:01:19.816Z,25.60
2023-04-04T09:03:48.278Z,26.40
2023-04-04T09:06:16.092Z,26.20
2023-04-04T09:08:43.308Z,26.10
2023-04-04T09:11:10.139Z,26.40
2023-04-04T09:13:37.912Z,26.50
2023-04-04T09:16:05.468Z,26.60
2023-04-04T09:18:32.158Z,26.60
2023-04-04T09:21:00.315Z,26.60
2023-04-04T09:23:26.967Z,26.70
2023-04-04T09:28:24.331Z,26.30
2023-04-04T09:30:52.252Z,25.40
2023-04-04T09:33:24.592Z,24.60
2023-04-04T09:35:55.478Z,24.20
2023-04-04T09:38:26.794Z,23.80
2023-04-04T09:40:55.335Z,23.50
2023-04-04T09:43:24.332Z,23.10
2023-04-04T09:45:52.112Z,22.90
2023-04-04T09:48:32.867Z,22.10
2023-04-04T09:50:59.977Z,21.50
2023-04-04T09:53:27.632Z,21.40
2023-04-04T09:55:56.430Z,21.50
2023-04-04T09:58:28.248Z,21.30
2023-04-04T10:00:57.475Z,21.00
2023-04-04T10:03:25.128Z,20.80
2023-04-04T10:06:08.289Z,20.50
2023-04-04T10:08:37.413Z,19.60
2023-04-04T10:13:36.900Z,19.20
2023-04-04T10:16:04.842Z,19.40
2023-04-04T10:18:33.333Z,19.40
2023-04-04T10:21:14.538Z,18.90
2023-04-04T10:23:45.447Z,18.90
2023-04-04T10:26:13.418Z,18.90
2023-04-04T10:28:42.152Z,19.20
2023-04-04T10:31:25.228Z,19.50
2023-04-04T10:34:15.461Z,19.20
2023-04-04T10:36:50.180Z,17.50
2023-04-04T10:39:27.206Z,16.60
2023-04-04T10:41:55.150Z,16.10
2023-04-04T10:44:33.425Z,16.30
2023-04-04T10:47:14.649Z,16.80
2023-04-04T10:49:44.878Z,17.60
2023-04-04T10:52:13.710Z,18.30
2023-04-04T10:54:42.183Z,18.90
2023-04-04T10:57:08.889Z,19.10
2023-04-04T11:00:01.088Z,19.50
2023-04-04T11:02:43.768Z,19.10
2023-04-04T11:05:23.402Z,19.00
2023-04-04T11:08:10.816Z,18.60
2023-04-04T11:10:45.233Z,19.00
2023-04-04T11:13:16.190Z,19.20
2023-04-04T11:15:47.700Z,19.40
2023-04-04T11:18:30.716Z,19.60
2023-04-04T11:21:03.647Z,19.80
2023-04-04T11:23:59.066Z,20.10
2023-04-04T11:26:26.175Z,20.30
2023-04-04T11:28:56.331Z,20.30
2023-04-04T11:31:25.226Z,20.40
2023-04-04T11:34:12.198Z,20.30
2023-04-04T11:36:38.949Z,20.50
2023-04-04T11:39:19.754Z,20.60
2023-04-04T11:42:05.627Z,20.60
2023-04-04T11:44:34.293Z,20.60
2023-04-04T11:47:07.006Z,20.60
2023-04-04T11:49:37.382Z,20.20
2023-04-04T11:52:06.769Z,19.60
2023-04-04T11:54:33.953Z,19.60
2023-04-04T11:57:01.501Z,19.20
2023-04-04T11:59:28.141Z,18.20
2023-04-04T12:01:55.160Z,16.70
2023-04-04T12:04:23.163Z,15.80
2023-04-04T12:06:51.995Z,16.00
2023-04-04T12:09:20.316Z,16.70
2023-04-04T12:11:47.854Z,16.80
2023-04-04T12:14:22.830Z,15.80
2023-04-04T12:16:54.644Z,16.10
2023-04-04T12:19:24.092Z,16.40
2023-04-04T12:21:52.379Z,17.00
2023-04-04T12:24:19.554Z,16.40
2023-04-04T12:26:49.278Z,16.70
2023-04-04T12:29:17.294Z,17.20
2023-04-04T12:31:46.727Z,17.80
2023-04-04T12:34:22.675Z,18.40
2023-04-04T12:36:52.678Z,18.80
2023-04-04T12:39:21.601Z,18.70
2023-04-04T12:42:05.369Z,19.20
2023-04-04T12:44:35.921Z,19.20
2023-04-04T12:47:05.330Z,19.30
2023-04-04T12:49:44.181Z,19.30
2023-04-04T12:52:33.404Z,19.40
2023-04-04T12:55:08.864Z,19.60
2023-04-04T12:57:38.237Z,19.50
2023-04-04T13:00:08.812Z,19.50
2023-04-04T13:02:37.293Z,19.40
2023-04-04T13:05:07.116Z,19.30
2023-04-04T13:07:43.274Z,18.80
2023-04-04T13:10:14.637Z,18.80
2023-04-04T13:12:56.619Z,18.90
2023-04-04T13:15:23.755Z,19.10
2023-04-04T13:17:51.406Z,19.20
2023-04-04T13:20:19.739Z,19.20
2023-04-04T13:22:46.481Z,19.10
2023-04-04T13:25:13.169Z,19.20
2023-04-04T13:27:40.283Z,19.10
2023-04-04T13:30:10.137Z,19.00
2023-04-04T13:32:38.272Z,18.90
2023-04-04T13:35:05.462Z,18.80
2023-04-04T13:37:32.398Z,18.80
2023-04-04T13:39:59.054Z,18.70
2023-04-04T13:42:30.261Z,18.60
2023-04-04T13:44:57.369Z,18.60
2023-04-04T13:47:27.332Z,18.50
2023-04-04T13:49:57.487Z,18.50
2023-04-04T13:52:24.181Z,18.40
2023-04-04T13:54:51.116Z,18.30
2023-04-04T13:57:17.767Z,18.30
2023-04-04T13:59:44.445Z,18.10
2023-04-04T14:02:11.121Z,18.00
2023-04-04T14:04:37.883Z,17.80
2023-04-04T14:07:04.676Z,17.60
2023-04-04T14:09:31.725Z,17.60
2023-04-04T14:11:58.414Z,17.60
2023-04-04T14:14:25.234Z,17.60
2023-04-04T14:16:51.930Z,17.30
2023-04-04T14:19:18.546Z,17.40
2023-04-04T14:21:45.173Z,17.30
2023-04-04T14:24:11.800Z,17.10
2023-04-04T14:26:38.394Z,17.00
2023-04-04T14:29:05.097Z,17.00
2023-04-04T14:31:34.617Z,16.90
2023-04-04T14:34:04.738Z,16.90
2023-04-04T14:36:31.754Z,16.90
2023-04-04T14:38:58.654Z,16.80
2023-04-04T14:41:25.311Z,16.80
2023-04-04T14:43:52.087Z,16.80
2023-04-04T14:46:19.621Z,16.70
2023-04-04T14:48:47.133Z,16.60
2023-04-04T14:51:14.438Z,16.40
2023-04-04T14:53:41.240Z,16.30
2023-04-04T14:56:08.404Z,16.20
2023-04-04T14:58:35.634Z,16.10
2023-04-04T15:01:02.638Z,16.00
2023-04-04T15:03:29.361Z,15.70
2023-04-04T15:05:55.987Z,15.60
2023-04-04T15:08:22.654Z,15.40
2023-04-04T15:10:49.339Z,15.20
2023-04-04T15:13:16.092Z,15.20
2023-04-04T15:15:42.804Z,15.20
2023-04-04T15:18:09.645Z,15.20
2023-04-04T15:20:40.048Z,14.90
2023-04-04T15:23:07.074Z,14.70
2023-04-04T15:25:34.045Z,14.40
2023-04-04T15:28:03.341Z,14.00
2023-04-04T15:30:29.998Z,13.90
2023-04-04T15:32:57.030Z,13.90
2023-04-04T15:35:24.158Z,13.80
2023-04-04T15:37:51.209Z,13.70
2023-04-04T15:40:19.151Z,13.70
2023-04-04T15:42:46.624Z,13.70
2023-04-04T15:45:14.359Z,13.70
2023-04-04T15:47:41.763Z,13.70
2023-04-04T15:50:08.749Z,13.70
2023-04-04T15:52:35.333Z,13.60
2023-04-04T15:55:02.888Z,13.50
2023-04-04T15:57:29.518Z,13.60
2023-04-04T15:59:56.133Z,13.40
2023-04-04T16:02:22.869Z,13.30
2023-04-04T16:04:49.554Z,13.20
2023-04-04T16:07:16.192Z,13.20
2023-04-04T16:09:43.052Z,13.10
2023-04-04T16:12:09.691Z,13.10
2023-04-04T16:14:36.299Z,13.00
2023-04-04T16:17:03.189Z,12.70
2023-04-04T16:19:30.635Z,12.50
2023-04-04T16:21:58.033Z,12.30
2023-04-04T16:24:24.669Z,12.10
2023-04-04T16:26:51.318Z,11.90
2023-04-04T16:29:18.550Z,11.90
2023-04-04T16:31:45.888Z,11.90
2023-04-04T16:34:12.588Z,12.00
2023-04-04T16:36:39.382Z,12.00
2023-04-04T16:39:06.847Z,12.00
2023-04-04T16:41:34.213Z,12.00
2023-04-04T16:44:01.112Z,12.00
2023-04-04T16:46:27.805Z,12.10
2023-04-04T16:48:54.551Z,12.00
2023-04-04T16:51:21.278Z,12.10
2023-04-04T16:53:48.617Z,12.00
2023-04-04T16:56:15.233Z,11.90
2023-04-04T16:58:45.008Z,11.90
2023-04-04T17:01:16.605Z,11.90
2023-04-04T17:03:43.354Z,11.90
2023-04-04T17:06:10.304Z,12.00
2023-04-04T17:08:37.033Z,11.90
2023-04-04T17:11:03.777Z,11.80
2023-04-04T17:13:30.492Z,11.80
2023-04-04T17:15:57.603Z,11.70
2023-04-04T17:18:24.331Z,11.70
2023-04-04T17:20:52.258Z,11.60
2023-04-04T17:23:18.868Z,11.60
2023-04-04T17:25:45.510Z,11.50
2023-04-04T17:28:12.193Z,11.50
2023-04-04T17:30:39.042Z,11.40
2023-04-04T17:33:05.997Z,11.30
2023-04-04T17:35:32.651Z,11.20
2023-04-04T17:37:59.238Z,11.10
2023-04-04T17:40:25.867Z,10.80
2023-04-04T17:42:52.499Z,10.70
2023-04-04T17:45:19.325Z,10.50
2023-04-04T17:47:46.221Z,10.50
2023-04-04T17:50:13.072Z,10.30
2023-04-04T17:52:39.854Z,10.10
2023-04-04T17:55:08.676Z,10.00
2023-04-04T17:57:35.598Z,9.90
2023-04-04T18:00:02.238Z,9.80
2023-04-04T18:02:28.870Z,9.70
2023-04-04T18:04:56.900Z,9.60
2023-04-04T18:07:23.536Z,9.50
2023-04-04T18:09:50.523Z,9.40
2023-04-04T18:12:18.081Z,9.30
2023-04-04T18:14:44.737Z,9.30
2023-04-04T18:17:11.405Z,9.20
2023-04-04T18:19:39.065Z,9.10
2023-04-04T18:22:06.797Z,9.00
2023-04-04T18:24:33.399Z,8.90
2023-04-04T18:27:00.244Z,8.80
2023-04-04T18:29:27.123Z,8.70
2023-04-04T18:31:53.856Z,8.60
2023-04-04T18:34:20.929Z,8.50
2023-04-04T18:36:49.353Z,8.40
2023-04-04T18:39:17.265Z,8.30
2023-04-04T18:41:44.889Z,8.20
2023-04-04T18:44:11.769Z,8.20
2023-04-04T18:46:39.224Z,8.10
2023-04-04T18:49:06.129Z,8.00
2023-04-04T18:51:33.389Z,7.90
2023-04-04T18:54:00.136Z,7.90
2023-04-04T18:56:27.374Z,7.80
2023-04-04T18:58:54.118Z,7.80
2023-04-04T19:01:20.898Z,7.60
2023-04-04T19:03:48.108Z,7.60
2023-04-04T19:06:15.040Z,7.50
2023-04-04T19:08:43.641Z,7.40
2023-04-04T19:11:11.359Z,7.40
2023-04-04T19:13:38.542Z,7.40
2023-04-04T19:16:05.317Z,7.30
2023-04-04T19:18:32.100Z,7.30
2023-04-04T19:20:58.946Z,7.20
2023-04-04T19:23:25.682Z,7.10
2023-04-04T19:25:55.609Z,7.10
2023-04-04T19:28:22.240Z,7.00
2023-04-04T19:30:49.447Z,7.00
2023-04-04T19:33:18.267Z,7.00
2023-04-04T19:35:51.757Z,7.00
2023-04-04T19:38:39.310Z,6.90
2023-04-04T19:41:13.148Z,6.90
2023-04-04T19:43:42.201Z,6.90
2023-04-04T19:46:11.192Z,6.90
2023-04-04T19:48:48.644Z,6.90
2023-04-04T19:51:15.253Z,6.80
2023-04-04T19:53:43.261Z,6.80
2023-04-04T19:56:11.834Z,6.80
2023-04-04T19:58:39.146Z,6.80
2023-04-04T20:01:06.995Z,6.80
2023-04-04T20:03:36.945Z,6.70
2023-04-04T20:06:10.599Z,6.70
2023-04-04T20:08:46.671Z,6.60
2023-04-04T20:11:13.665Z,6.50
2023-04-04T20:13:41.336Z,6.40
2023-04-04T20:16:13.181Z,6.40
2023-04-04T20:18:42.680Z,6.30
2023-04-04T20:21:12.342Z,6.30
2023-04-04T20:23:46.425Z,6.20
2023-04-04T20:26:33.881Z,6.20
2023-04-04T20:29:00.623Z,6.20
2023-04-04T20:31:27.265Z,6.10
2023-04-04T20:33:53.893Z,6.10
2023-04-04T20:36:20.799Z,6.10
2023-04-04T20:38:48.311Z,6.10
2023-04-04T20:41:21.516Z,6.00
2023-04-04T20:43:53.536Z,6.00
2023-04-04T20:46:25.372Z,5.90
2023-04-04T20:48:56.778Z,5.90
2023-04-04T20:51:31.776Z,5.80
2023-04-04T20:54:00.813Z,5.80
2023-04-04T20:56:55.204Z,5.70
2023-04-04T20:59:36.679Z,5.70
2023-04-04T21:02:12.438Z,5.60
2023-04-04T21:04:40.687Z,5.50
2023-04-04T21:07:07.386Z,5.40
2023-04-04T21:09:34.062Z,5.40
2023-04-04T21:12:01.655Z,5.40
2023-04-04T21:14:37.918Z,5.40
2023-04-04T21:17:07.042Z,5.30
2023-04-04T21:19:33.693Z,5.30
2023-04-04T21:22:00.382Z,5.30
2023-04-04T21:24:35.474Z,5.30
2023-04-04T21:27:06.659Z,5.40
2023-04-04T21:29:33.264Z,5.30
2023-04-04T21:32:00.200Z,5.30
2023-04-04T21:34:27.470Z,5.30
2023-04-04T21:37:01.340Z,5.30
2023-04-04T21:39:29.734Z,5.30
2023-04-04T21:42:03.625Z,5.30
2023-04-04T21:44:31.698Z,5.40
2023-04-04T21:46:58.379Z,5.40
2023-04-04T21:49:25.374Z,5.40
2023-04-04T21:51:52.092Z,5.40
2023-04-04T21:54:19.867Z,5.30
2023-04-04T21:56:46.846Z,5.30
2023-04-04T21:59:13.586Z,5.20
2023-04-04T22:01:40.751Z,5.20
2023-04-04T22:04:07.616Z,5.20
2023-04-04T22:06:34.613Z,5.10
2023-04-04T22:09:04.233Z,5.10
2023-04-04T22:11:31.045Z,5.10
2023-04-04T22:14:04.100Z,5.10
2023-04-04T22:16:31.547Z,4.90
2023-04-04T22:19:00.937Z,4.80
2023-04-04T22:21:27.711Z,4.70
2023-04-04T22:24:00.599Z,4.70
2023-04-04T22:26:33.881Z,4.70
2023-04-04T22:29:05.150Z,4.60
2023-04-04T22:31:34.625Z,4.50
2023-04-04T22:34:02.923Z,4.40
2023-04-04T22:36:29.752Z,4.30
2023-04-04T22:38:57.073Z,4.30
2023-04-04T22:41:27.328Z,4.30
2023-04-04T22:43:54.042Z,4.30
2023-04-04T22:46:20.830Z,4.20
2023-04-04T22:48:47.563Z,4.20
2023-04-04T22:51:15.599Z,4.20
2023-04-04T22:53:44.054Z,4.10
2023-04-04T22:56:10.993Z,4.10
2023-04-04T22:58:37.790Z,4.10
2023-04-04T23:01:04.862Z,4.00
2023-04-04T23:03:31.740Z,3.00
2023-04-04T23:05:58.373Z,4.00
2023-04-04T23:08:25.020Z,4.00
2023-04-04T23:10:51.634Z,3.90
2023-04-04T23:13:18.247Z,3.80
2023-04-04T23:15:45.370Z,3.70
2023-04-04T23:18:13.251Z,3.70
2023-04-04T23:20:40.698Z,3.60
2023-04-04T23:23:07.622Z,3.50
2023-04-04T23:25:34.320Z,3.50
2023-04-04T23:28:01.078Z,3.50
2023-04-04T23:30:28.524Z,3.50
2023-04-04T23:32:55.341Z,3.50
2023-04-04T23:35:21.943Z,3.50
2023-04-04T23:37:48.688Z,3.40
2023-04-04T23:40:15.390Z,3.40
2023-04-04T23:42:42.025Z,3.50
2023-04-04T23:45:09.330Z,3.50
2023-04-04T23:47:36.911Z,3.50
2023-04-04T23:50:03.937Z,3.50
2023-04-04T23:52:30.621Z,3.40
2023-04-04T23:54:57.215Z,3.40
2023-04-04T23:57:24.100Z,3.40
2023-04-04T23:59:50.703Z,3.40
